Impacts METAR Board
IDs:

KUVA - Uvalde/Garner Fld, TX, US

Updated at: 1300 UTC 13 Dec 2019
Potential Impact None Slight Moderate High
Time 13/01Z 13/02Z 13/03Z 13/04Z 13/05Z 13/06Z 13/07Z 13/08Z 13/09Z 13/10Z 13/11Z 13/12Z 13/13Z
Temp51 47 44 40 42 41 41 38 38 37 37 36 36
Dewpt39 38 36 35 37 37 37 35 35 35 34 34 35
Altim30.11 30.12 30.11 30.11 30.10 30.10 30.08 30.05 30.05 30.03 30.03 30.01 30.02
VIS10 10 10 10 10 10 10 10 10 10 10 10 10
CIG-- -- -- -- -- -- -- -- -- -- -- -- --
CoverCLRCLRCLRCLRCLRCLRCLRCLRCLRCLRCLRCLRCLR
FltCatVFRVFRVFRVFRVFRVFRVFRVFRVFRVFRVFRVFRVFR
WX--------------------------
WDir00004000000000
WSpd0 0 0 0 3 0 0 0 0 0 0 0 0
WGst-- -- -- -- -- -- -- -- -- -- -- -- --
Raw hourly METARs
KUVA 130055Z AUTO 00000KT 10SM CLR 11/04 A3011 RMK AO2 T01060040
KUVA 130155Z AUTO 00000KT 10SM CLR 08/03 A3012 RMK AO2 T00810033
KUVA 130255Z AUTO 00000KT 10SM CLR 06/02 A3011 RMK AO2 T00640023
KUVA 130355Z AUTO 00000KT 10SM CLR 05/02 A3011 RMK AO2 T00470019
KUVA 130455Z AUTO 04003KT 10SM CLR 06/03 A3010 RMK AO2 T00550026
KUVA 130555Z AUTO 00000KT 10SM CLR 05/03 A3010 RMK AO2 T00490026 10135 20042 401681004
KUVA 130655Z AUTO 00000KT 10SM CLR 05/03 A3008 RMK AO2 T00500025
KUVA 130755Z AUTO 00000KT 10SM CLR 03/02 A3005 RMK AO2 T00340018
KUVA 130855Z AUTO 00000KT 10SM CLR 03/02 A3005 RMK AO2 T00310019
KUVA 130955Z AUTO 00000KT 10SM CLR 03/02 A3003 RMK AO2 T00300016
KUVA 131055Z AUTO 00000KT 10SM CLR 03/01 A3003 RMK AO2 T00250011
KUVA 131155Z AUTO 00000KT 10SM CLR 02/01 A3001 RMK AO2 T00200010 10050 20020
KUVA 131255Z AUTO 00000KT 10SM CLR 02/01 A3002 RMK AO2 T00240014



Page loaded:  13:51 UTC  |   05:51 AM Pacific  |   06:51 AM Mountain  |   07:51 AM Central  |   08:51 AM Eastern

 

ADVISORIES

FORECASTS

FORECASTS

OBSERVATIONS

USER TOOLS

ABOUT US